sensor_id;sensor_type;location;lat;lon;timestamp;temperature;humidity
9209;DHT22;4639;48.862;9.188;2023-07-20T00:01:11;20.30;99.90
9209;DHT22;4639;48.862;9.188;2023-07-20T00:03:37;20.30;99.90
9209;DHT22;4639;48.862;9.188;2023-07-20T00:06:03;20.40;99.90
9209;DHT22;4639;48.862;9.188;2023-07-20T00:08:29;20.30;99.90
9209;DHT22;4639;48.862;9.188;2023-07-20T00:10:55;20.30;99.90
9209;DHT22;4639;48.862;9.188;2023-07-20T00:13:21;20.20;99.90
9209;DHT22;4639;48.862;9.188;2023-07-20T00:15:47;20.30;99.90
9209;DHT22;4639;48.862;9.188;2023-07-20T00:18:13;20.30;99.90
9209;DHT22;4639;48.862;9.188;2023-07-20T00:20:39;20.20;99.90
9209;DHT22;4639;48.862;9.188;2023-07-20T00:23:05;20.20;99.90
9209;DHT22;4639;48.862;9.188;2023-07-20T00:25:30;20.20;99.90
9209;DHT22;4639;48.862;9.188;2023-07-20T00:27:56;20.20;99.90
9209;DHT22;4639;48.862;9.188;2023-07-20T00:30:21;20.20;99.90
9209;DHT22;4639;48.862;9.188;2023-07-20T00:32:47;20.20;99.90
9209;DHT22;4639;48.862;9.188;2023-07-20T00:35:13;20.10;99.90
9209;DHT22;4639;48.862;9.188;2023-07-20T00:37:39;20.00;99.90
9209;DHT22;4639;48.862;9.188;2023-07-20T00:40:05;20.00;99.90
9209;DHT22;4639;48.862;9.188;2023-07-20T00:42:32;19.90;99.90
9209;DHT22;4639;48.862;9.188;2023-07-20T00:44:58;19.80;99.90
9209;DHT22;4639;48.862;9.188;2023-07-20T00:47:24;19.80;99.90
9209;DHT22;4639;48.862;9.188;2023-07-20T00:49:50;19.80;99.90
9209;DHT22;4639;48.862;9.188;2023-07-20T00:52:16;19.70;99.90
9209;DHT22;4639;48.862;9.188;2023-07-20T00:54:44;19.60;99.90
9209;DHT22;4639;48.862;9.188;2023-07-20T00:57:10;19.50;99.90
9209;DHT22;4639;48.862;9.188;2023-07-20T00:59:38;19.50;99.90
9209;DHT22;4639;48.862;9.188;2023-07-20T01:02:03;19.30;99.90
9209;DHT22;4639;48.862;9.188;2023-07-20T01:04:29;19.30;99.90
9209;DHT22;4639;48.862;9.188;2023-07-20T01:07:01;19.30;99.90
9209;DHT22;4639;48.862;9.188;2023-07-20T01:09:55;19.30;99.90
9209;DHT22;4639;48.862;9.188;2023-07-20T01:12:35;19.20;99.90
9209;DHT22;4639;48.862;9.188;2023-07-20T01:15:06;19.20;99.90
9209;DHT22;4639;48.862;9.188;2023-07-20T01:17:33;19.00;99.90
9209;DHT22;4639;48.862;9.188;2023-07-20T01:19:59;18.90;99.90
9209;DHT22;4639;48.862;9.188;2023-07-20T01:33:00;18.90;99.90
9209;DHT22;4639;48.862;9.188;2023-07-20T01:35:29;18.90;99.90
9209;DHT22;4639;48.862;9.188;2023-07-20T01:37:56;18.90;99.90
9209;DHT22;4639;48.862;9.188;2023-07-20T01:40:22;18.90;99.90
9209;DHT22;4639;48.862;9.188;2023-07-20T01:42:51;18.90;99.90
9209;DHT22;4639;48.862;9.188;2023-07-20T01:45:17;18.90;99.90
9209;DHT22;4639;48.862;9.188;2023-07-20T01:47:43;18.80;99.90
9209;DHT22;4639;48.862;9.188;2023-07-20T01:50:09;18.90;99.90
9209;DHT22;4639;48.862;9.188;2023-07-20T01:52:36;18.80;99.90
9209;DHT22;4639;48.862;9.188;2023-07-20T01:55:01;18.70;99.90
9209;DHT22;4639;48.862;9.188;2023-07-20T01:57:27;18.80;99.90
9209;DHT22;4639;48.862;9.188;2023-07-20T01:59:52;18.70;99.90
9209;DHT22;4639;48.862;9.188;2023-07-20T02:02:18;18.50;99.90
9209;DHT22;4639;48.862;9.188;2023-07-20T02:04:44;18.40;99.90
9209;DHT22;4639;48.862;9.188;2023-07-20T02:07:09;18.40;99.90
9209;DHT22;4639;48.862;9.188;2023-07-20T02:09:35;18.40;99.90
9209;DHT22;4639;48.862;9.188;2023-07-20T02:12:00;18.30;99.90
9209;DHT22;4639;48.862;9.188;2023-07-20T02:14:26;18.30;99.90
9209;DHT22;4639;48.862;9.188;2023-07-20T02:16:51;18.30;99.90
9209;DHT22;4639;48.862;9.188;2023-07-20T02:19:18;18.20;99.90
9209;DHT22;4639;48.862;9.188;2023-07-20T02:21:44;18.10;99.90
9209;DHT22;4639;48.862;9.188;2023-07-20T02:24:10;18.10;99.90
9209;DHT22;4639;48.862;9.188;2023-07-20T02:26:35;18.20;99.90
9209;DHT22;4639;48.862;9.188;2023-07-20T02:29:01;18.20;99.90
9209;DHT22;4639;48.862;9.188;2023-07-20T02:31:30;18.20;99.90
9209;DHT22;4639;48.862;9.188;2023-07-20T02:33:55;18.20;99.90
9209;DHT22;4639;48.862;9.188;2023-07-20T02:36:21;18.20;99.90
9209;DHT22;4639;48.862;9.188;2023-07-20T02:38:46;18.20;99.90
9209;DHT22;4639;48.862;9.188;2023-07-20T02:41:13;18.30;99.90
9209;DHT22;4639;48.862;9.188;2023-07-20T02:43:39;18.00;99.90
9209;DHT22;4639;48.862;9.188;2023-07-20T02:46:04;18.00;99.90
9209;DHT22;4639;48.862;9.188;2023-07-20T02:48:30;17.90;99.90
9209;DHT22;4639;48.862;9.188;2023-07-20T02:50:56;17.90;99.90
9209;DHT22;4639;48.862;9.188;2023-07-20T02:53:21;17.90;99.90
9209;DHT22;4639;48.862;9.188;2023-07-20T02:55:47;17.90;99.90
9209;DHT22;4639;48.862;9.188;2023-07-20T02:58:13;18.00;99.90
9209;DHT22;4639;48.862;9.188;2023-07-20T03:00:38;17.90;99.90
9209;DHT22;4639;48.862;9.188;2023-07-20T03:03:04;17.80;99.90
9209;DHT22;4639;48.862;9.188;2023-07-20T03:05:29;17.80;99.90
9209;DHT22;4639;48.862;9.188;2023-07-20T03:07:55;17.80;99.90
9209;DHT22;4639;48.862;9.188;2023-07-20T03:10:21;17.70;99.90
9209;DHT22;4639;48.862;9.188;2023-07-20T03:12:47;17.70;99.90
9209;DHT22;4639;48.862;9.188;2023-07-20T03:15:12;17.60;99.90
9209;DHT22;4639;48.862;9.188;2023-07-20T03:17:38;17.50;99.90
9209;DHT22;4639;48.862;9.188;2023-07-20T03:20:04;17.50;99.90
9209;DHT22;4639;48.862;9.188;2023-07-20T03:22:34;17.40;99.90
9209;DHT22;4639;48.862;9.188;2023-07-20T03:24:59;17.50;99.90
9209;DHT22;4639;48.862;9.188;2023-07-20T03:27:25;17.50;99.90
9209;DHT22;4639;48.862;9.188;2023-07-20T03:29:50;17.30;99.90
9209;DHT22;4639;48.862;9.188;2023-07-20T03:32:16;17.30;99.90
9209;DHT22;4639;48.862;9.188;2023-07-20T03:34:41;17.30;99.90
9209;DHT22;4639;48.862;9.188;2023-07-20T03:37:07;17.40;99.90
9209;DHT22;4639;48.862;9.188;2023-07-20T03:39:33;17.20;99.90
9209;DHT22;4639;48.862;9.188;2023-07-20T03:41:58;17.30;99.90
9209;DHT22;4639;48.862;9.188;2023-07-20T03:44:24;17.40;99.90
9209;DHT22;4639;48.862;9.188;2023-07-20T03:46:50;17.40;99.90
9209;DHT22;4639;48.862;9.188;2023-07-20T03:49:15;17.40;99.90
9209;DHT22;4639;48.862;9.188;2023-07-20T03:51:41;17.40;99.90
9209;DHT22;4639;48.862;9.188;2023-07-20T03:54:06;17.40;99.90
9209;DHT22;4639;48.862;9.188;2023-07-20T03:56:33;17.40;99.90
9209;DHT22;4639;48.862;9.188;2023-07-20T03:59:01;17.40;99.90
9209;DHT22;4639;48.862;9.188;2023-07-20T04:01:26;17.40;99.90
9209;DHT22;4639;48.862;9.188;2023-07-20T04:03:52;17.30;99.90
9209;DHT22;4639;48.862;9.188;2023-07-20T04:06:17;17.30;99.90
9209;DHT22;4639;48.862;9.188;2023-07-20T04:08:44;17.20;99.90
9209;DHT22;4639;48.862;9.188;2023-07-20T04:11:10;17.20;99.90
9209;DHT22;4639;48.862;9.188;2023-07-20T04:13:36;17.30;99.90
9209;DHT22;4639;48.862;9.188;2023-07-20T04:16:01;17.30;99.90
9209;DHT22;4639;48.862;9.188;2023-07-20T04:18:28;17.40;99.90
9209;DHT22;4639;48.862;9.188;2023-07-20T04:20:53;17.50;99.90
9209;DHT22;4639;48.862;9.188;2023-07-20T04:23:19;17.40;99.90
9209;DHT22;4639;48.862;9.188;2023-07-20T04:25:44;17.40;99.90
9209;DHT22;4639;48.862;9.188;2023-07-20T04:28:10;17.40;99.90
9209;DHT22;4639;48.862;9.188;2023-07-20T04:30:36;17.50;99.90
9209;DHT22;4639;48.862;9.188;2023-07-20T04:33:03;17.60;99.90
9209;DHT22;4639;48.862;9.188;2023-07-20T04:35:54;17.50;99.90
9209;DHT22;4639;48.862;9.188;2023-07-20T04:38:20;17.50;99.90
9209;DHT22;4639;48.862;9.188;2023-07-20T04:40:48;17.50;99.90
9209;DHT22;4639;48.862;9.188;2023-07-20T04:43:14;17.50;99.90
9209;DHT22;4639;48.862;9.188;2023-07-20T04:45:40;17.40;99.90
9209;DHT22;4639;48.862;9.188;2023-07-20T04:48:09;17.50;99.90
9209;DHT22;4639;48.862;9.188;2023-07-20T04:50:36;17.50;99.90
9209;DHT22;4639;48.862;9.188;2023-07-20T04:53:02;17.40;99.90
9209;DHT22;4639;48.862;9.188;2023-07-20T04:55:28;17.40;99.90
9209;DHT22;4639;48.862;9.188;2023-07-20T04:57:53;17.40;99.90
9209;DHT22;4639;48.862;9.188;2023-07-20T05:00:19;17.40;99.90
9209;DHT22;4639;48.862;9.188;2023-07-20T05:02:46;17.50;99.90
9209;DHT22;4639;48.862;9.188;2023-07-20T05:05:14;17.80;99.90
9209;DHT22;4639;48.862;9.188;2023-07-20T05:07:40;17.60;99.90
9209;DHT22;4639;48.862;9.188;2023-07-20T05:10:06;17.70;99.90
9209;DHT22;4639;48.862;9.188;2023-07-20T05:12:32;17.60;99.90
9209;DHT22;4639;48.862;9.188;2023-07-20T05:14:57;17.60;99.90
9209;DHT22;4639;48.862;9.188;2023-07-20T05:17:23;17.80;99.90
9209;DHT22;4639;48.862;9.188;2023-07-20T05:19:50;17.80;99.90
9209;DHT22;4639;48.862;9.188;2023-07-20T05:22:16;17.90;99.90
9209;DHT22;4639;48.862;9.188;2023-07-20T05:24:42;17.90;99.90
9209;DHT22;4639;48.862;9.188;2023-07-20T05:27:08;18.10;99.90
9209;DHT22;4639;48.862;9.188;2023-07-20T05:29:33;18.20;99.90
9209;DHT22;4639;48.862;9.188;2023-07-20T05:31:59;18.30;99.90
9209;DHT22;4639;48.862;9.188;2023-07-20T05:34:24;18.30;99.90
9209;DHT22;4639;48.862;9.188;2023-07-20T05:36:50;18.30;99.90
9209;DHT22;4639;48.862;9.188;2023-07-20T05:39:18;18.50;99.90
9209;DHT22;4639;48.862;9.188;2023-07-20T05:41:44;18.40;99.90
9209;DHT22;4639;48.862;9.188;2023-07-20T05:44:09;18.40;99.90
9209;DHT22;4639;48.862;9.188;2023-07-20T05:46:35;18.50;99.90
9209;DHT22;4639;48.862;9.188;2023-07-20T05:49:01;18.60;99.90
9209;DHT22;4639;48.862;9.188;2023-07-20T05:51:27;18.60;99.90
9209;DHT22;4639;48.862;9.188;2023-07-20T05:53:53;18.70;99.90
9209;DHT22;4639;48.862;9.188;2023-07-20T05:56:18;18.80;99.90
9209;DHT22;4639;48.862;9.188;2023-07-20T05:58:44;18.70;99.90
9209;DHT22;4639;48.862;9.188;2023-07-20T06:01:10;18.90;99.90
9209;DHT22;4639;48.862;9.188;2023-07-20T06:03:35;19.00;99.90
9209;DHT22;4639;48.862;9.188;2023-07-20T06:06:03;19.10;99.90
9209;DHT22;4639;48.862;9.188;2023-07-20T06:08:30;19.10;99.90
9209;DHT22;4639;48.862;9.188;2023-07-20T06:10:56;19.20;99.90
9209;DHT22;4639;48.862;9.188;2023-07-20T06:13:21;19.50;99.90
9209;DHT22;4639;48.862;9.188;2023-07-20T06:15:47;19.30;99.90
9209;DHT22;4639;48.862;9.188;2023-07-20T06:18:13;19.40;99.90
9209;DHT22;4639;48.862;9.188;2023-07-20T06:20:39;19.40;99.90
9209;DHT22;4639;48.862;9.188;2023-07-20T06:23:04;19.60;99.90
9209;DHT22;4639;48.862;9.188;2023-07-20T06:25:30;19.60;99.90
9209;DHT22;4639;48.862;9.188;2023-07-20T06:27:56;19.70;99.90
9209;DHT22;4639;48.862;9.188;2023-07-20T06:30:22;19.80;99.90
9209;DHT22;4639;48.862;9.188;2023-07-20T06:32:48;20.00;99.90
9209;DHT22;4639;48.862;9.188;2023-07-20T06:35:14;19.90;99.90
9209;DHT22;4639;48.862;9.188;2023-07-20T06:37:39;20.00;99.90
9209;DHT22;4639;48.862;9.188;2023-07-20T06:40:06;20.00;99.90
9209;DHT22;4639;48.862;9.188;2023-07-20T06:42:34;20.20;99.90
9209;DHT22;4639;48.862;9.188;2023-07-20T06:45:00;20.20;99.90
9209;DHT22;4639;48.862;9.188;2023-07-20T06:47:26;20.20;99.90
9209;DHT22;4639;48.862;9.188;2023-07-20T06:49:51;20.10;99.90
9209;DHT22;4639;48.862;9.188;2023-07-20T06:52:17;20.10;99.90
9209;DHT22;4639;48.862;9.188;2023-07-20T06:54:42;20.10;99.90
9209;DHT22;4639;48.862;9.188;2023-07-20T06:57:08;20.30;99.90
9209;DHT22;4639;48.862;9.188;2023-07-20T06:59:33;20.20;99.90
9209;DHT22;4639;48.862;9.188;2023-07-20T07:01:59;20.30;99.90
9209;DHT22;4639;48.862;9.188;2023-07-20T07:04:25;20.40;99.90
9209;DHT22;4639;48.862;9.188;2023-07-20T07:06:50;20.40;99.90
9209;DHT22;4639;48.862;9.188;2023-07-20T07:09:16;20.50;99.90
9209;DHT22;4639;48.862;9.188;2023-07-20T07:11:41;20.60;99.90
9209;DHT22;4639;48.862;9.188;2023-07-20T07:14:07;20.80;99.90
9209;DHT22;4639;48.862;9.188;2023-07-20T07:16:32;20.70;99.90
9209;DHT22;4639;48.862;9.188;2023-07-20T07:18:58;20.70;99.90
9209;DHT22;4639;48.862;9.188;2023-07-20T07:21:25;20.90;99.90
9209;DHT22;4639;48.862;9.188;2023-07-20T07:23:51;20.80;99.90
9209;DHT22;4639;48.862;9.188;2023-07-20T07:26:18;20.90;99.90
9209;DHT22;4639;48.862;9.188;2023-07-20T07:28:44;20.80;99.90
9209;DHT22;4639;48.862;9.188;2023-07-20T07:31:10;20.90;99.90
9209;DHT22;4639;48.862;9.188;2023-07-20T07:33:35;21.10;99.90
9209;DHT22;4639;48.862;9.188;2023-07-20T07:36:01;21.10;99.90
9209;DHT22;4639;48.862;9.188;2023-07-20T07:38:27;21.10;99.90
9209;DHT22;4639;48.862;9.188;2023-07-20T07:40:53;21.10;99.90
9209;DHT22;4639;48.862;9.188;2023-07-20T07:43:19;21.20;99.90
9209;DHT22;4639;48.862;9.188;2023-07-20T07:45:44;21.40;99.90
9209;DHT22;4639;48.862;9.188;2023-07-20T07:48:10;21.50;99.90
9209;DHT22;4639;48.862;9.188;2023-07-20T07:50:39;21.50;99.90
9209;DHT22;4639;48.862;9.188;2023-07-20T07:53:08;21.40;99.90
9209;DHT22;4639;48.862;9.188;2023-07-20T07:55:35;21.40;99.90
9209;DHT22;4639;48.862;9.188;2023-07-20T07:58:01;21.40;99.90
9209;DHT22;4639;48.862;9.188;2023-07-20T08:00:26;21.50;99.90
9209;DHT22;4639;48.862;9.188;2023-07-20T08:02:52;21.60;99.90
9209;DHT22;4639;48.862;9.188;2023-07-20T08:05:17;21.60;99.90
9209;DHT22;4639;48.862;9.188;2023-07-20T08:07:43;21.60;99.90
9209;DHT22;4639;48.862;9.188;2023-07-20T08:10:09;21.60;99.90
9209;DHT22;4639;48.862;9.188;2023-07-20T08:12:35;21.70;99.90
9209;DHT22;4639;48.862;9.188;2023-07-20T08:15:01;21.80;99.90
9209;DHT22;4639;48.862;9.188;2023-07-20T08:17:26;22.00;99.90
9209;DHT22;4639;48.862;9.188;2023-07-20T08:19:52;22.30;99.90
9209;DHT22;4639;48.862;9.188;2023-07-20T08:22:17;22.50;99.90
9209;DHT22;4639;48.862;9.188;2023-07-20T08:24:44;22.40;99.90
9209;DHT22;4639;48.862;9.188;2023-07-20T08:27:09;22.40;99.90
9209;DHT22;4639;48.862;9.188;2023-07-20T08:29:36;22.30;99.90
9209;DHT22;4639;48.862;9.188;2023-07-20T08:32:02;22.20;99.90
9209;DHT22;4639;48.862;9.188;2023-07-20T08:34:29;22.20;99.90
9209;DHT22;4639;48.862;9.188;2023-07-20T08:36:55;22.30;99.90
9209;DHT22;4639;48.862;9.188;2023-07-20T08:39:21;22.50;99.90
9209;DHT22;4639;48.862;9.188;2023-07-20T08:41:48;22.30;99.90
9209;DHT22;4639;48.862;9.188;2023-07-20T08:44:14;22.20;99.90
9209;DHT22;4639;48.862;9.188;2023-07-20T08:46:40;22.20;99.90
9209;DHT22;4639;48.862;9.188;2023-07-20T08:49:06;22.30;99.90
9209;DHT22;4639;48.862;9.188;2023-07-20T08:51:32;22.70;99.90
9209;DHT22;4639;48.862;9.188;2023-07-20T08:53:59;22.70;99.90
9209;DHT22;4639;48.862;9.188;2023-07-20T08:56:26;22.50;99.90
9209;DHT22;4639;48.862;9.188;2023-07-20T08:58:55;22.30;99.90
9209;DHT22;4639;48.862;9.188;2023-07-20T09:01:21;22.20;99.90
9209;DHT22;4639;48.862;9.188;2023-07-20T09:03:47;22.70;99.90
9209;DHT22;4639;48.862;9.188;2023-07-20T09:06:14;22.80;99.90
9209;DHT22;4639;48.862;9.188;2023-07-20T09:08:40;22.90;99.90
9209;DHT22;4639;48.862;9.188;2023-07-20T09:11:07;22.90;99.90
9209;DHT22;4639;48.862;9.188;2023-07-20T09:13:33;22.80;99.90
9209;DHT22;4639;48.862;9.188;2023-07-20T09:15:59;22.60;99.90
9209;DHT22;4639;48.862;9.188;2023-07-20T09:18:30;22.50;99.90
9209;DHT22;4639;48.862;9.188;2023-07-20T09:21:03;22.80;99.90
9209;DHT22;4639;48.862;9.188;2023-07-20T09:23:36;23.20;99.90
9209;DHT22;4639;48.862;9.188;2023-07-20T09:26:11;23.00;99.90
9209;DHT22;4639;48.862;9.188;2023-07-20T09:28:49;23.00;99.90
9209;DHT22;4639;48.862;9.188;2023-07-20T09:31:16;23.40;99.90
9209;DHT22;4639;48.862;9.188;2023-07-20T09:33:42;23.80;99.90
9209;DHT22;4639;48.862;9.188;2023-07-20T09:36:09;23.80;99.90
9209;DHT22;4639;48.862;9.188;2023-07-20T09:38:37;23.90;99.90
9209;DHT22;4639;48.862;9.188;2023-07-20T09:41:04;23.70;99.90
9209;DHT22;4639;48.862;9.188;2023-07-20T09:43:30;23.80;99.90
9209;DHT22;4639;48.862;9.188;2023-07-20T09:45:58;24.20;99.90
9209;DHT22;4639;48.862;9.188;2023-07-20T09:48:24;24.30;99.90
9209;DHT22;4639;48.862;9.188;2023-07-20T09:50:52;24.50;99.90
9209;DHT22;4639;48.862;9.188;2023-07-20T09:53:18;24.90;99.90
9209;DHT22;4639;48.862;9.188;2023-07-20T09:55:45;24.60;99.90
9209;DHT22;4639;48.862;9.188;2023-07-20T09:58:11;24.50;99.90
9209;DHT22;4639;48.862;9.188;2023-07-20T10:00:38;24.70;99.90
9209;DHT22;4639;48.862;9.188;2023-07-20T10:03:05;24.90;99.90
9209;DHT22;4639;48.862;9.188;2023-07-20T10:05:35;25.30;99.90
9209;DHT22;4639;48.862;9.188;2023-07-20T10:08:03;25.20;99.90
9209;DHT22;4639;48.862;9.188;2023-07-20T10:10:32;25.30;99.90
9209;DHT22;4639;48.862;9.188;2023-07-20T10:13:00;25.20;99.90
9209;DHT22;4639;48.862;9.188;2023-07-20T10:15:34;25.20;99.90
9209;DHT22;4639;48.862;9.188;2023-07-20T10:18:12;25.40;99.90
9209;DHT22;4639;48.862;9.188;2023-07-20T10:20:40;25.30;99.90
9209;DHT22;4639;48.862;9.188;2023-07-20T10:23:08;25.40;99.90
9209;DHT22;4639;48.862;9.188;2023-07-20T10:25:35;25.60;99.90
9209;DHT22;4639;48.862;9.188;2023-07-20T10:28:06;25.70;99.90
9209;DHT22;4639;48.862;9.188;2023-07-20T10:30:34;25.90;99.90
9209;DHT22;4639;48.862;9.188;2023-07-20T10:33:02;26.50;99.90
9209;DHT22;4639;48.862;9.188;2023-07-20T10:35:28;26.50;99.10
9209;DHT22;4639;48.862;9.188;2023-07-20T10:38:01;26.50;99.10
9209;DHT22;4639;48.862;9.188;2023-07-20T10:40:34;26.70;98.90
9209;DHT22;4639;48.862;9.188;2023-07-20T10:43:05;26.70;99.60
9209;DHT22;4639;48.862;9.188;2023-07-20T10:45:42;26.60;99.00
9209;DHT22;4639;48.862;9.188;2023-07-20T10:48:15;26.50;97.60
9209;DHT22;4639;48.862;9.188;2023-07-20T10:50:42;26.50;97.00
9209;DHT22;4639;48.862;9.188;2023-07-20T10:55:38;26.90;97.40
9209;DHT22;4639;48.862;9.188;2023-07-20T10:58:11;26.90;97.60
9209;DHT22;4639;48.862;9.188;2023-07-20T11:00:38;27.20;97.50
9209;DHT22;4639;48.862;9.188;2023-07-20T11:03:30;27.30;97.30
9209;DHT22;4639;48.862;9.188;2023-07-20T11:05:57;27.60;97.70
9209;DHT22;4639;48.862;9.188;2023-07-20T11:08:40;27.40;96.00
9209;DHT22;4639;48.862;9.188;2023-07-20T11:11:22;27.60;95.90
9209;DHT22;4639;48.862;9.188;2023-07-20T11:16:38;27.60;95.80
9209;DHT22;4639;48.862;9.188;2023-07-20T11:19:05;27.70;96.70
9209;DHT22;4639;48.862;9.188;2023-07-20T11:21:41;28.00;95.80
9209;DHT22;4639;48.862;9.188;2023-07-20T11:24:07;28.10;94.40
9209;DHT22;4639;48.862;9.188;2023-07-20T11:26:51;28.20;95.60
9209;DHT22;4639;48.862;9.188;2023-07-20T11:29:18;28.30;94.90
9209;DHT22;4639;48.862;9.188;2023-07-20T11:31:46;28.20;96.00
9209;DHT22;4639;48.862;9.188;2023-07-20T11:34:13;28.10;95.00
9209;DHT22;4639;48.862;9.188;2023-07-20T11:36:46;28.00;94.80
9209;DHT22;4639;48.862;9.188;2023-07-20T11:39:13;28.10;94.40
9209;DHT22;4639;48.862;9.188;2023-07-20T11:41:47;28.40;93.80
9209;DHT22;4639;48.862;9.188;2023-07-20T11:44:13;28.30;92.40
9209;DHT22;4639;48.862;9.188;2023-07-20T11:46:41;27.80;92.70
9209;DHT22;4639;48.862;9.188;2023-07-20T11:49:08;27.70;93.60
9209;DHT22;4639;48.862;9.188;2023-07-20T11:51:34;27.30;94.40
9209;DHT22;4639;48.862;9.188;2023-07-20T11:54:01;27.10;95.30
9209;DHT22;4639;48.862;9.188;2023-07-20T11:56:27;27.00;94.00
9209;DHT22;4639;48.862;9.188;2023-07-20T11:59:00;27.30;95.40
9209;DHT22;4639;48.862;9.188;2023-07-20T12:01:27;27.40;95.40
9209;DHT22;4639;48.862;9.188;2023-07-20T12:03:59;27.50;95.20
9209;DHT22;4639;48.862;9.188;2023-07-20T12:06:25;27.60;95.00
9209;DHT22;4639;48.862;9.188;2023-07-20T12:08:53;27.70;95.60
9209;DHT22;4639;48.862;9.188;2023-07-20T12:11:37;27.70;94.40
9209;DHT22;4639;48.862;9.188;2023-07-20T12:14:04;27.50;94.80
9209;DHT22;4639;48.862;9.188;2023-07-20T12:16:31;27.30;95.30
9209;DHT22;4639;48.862;9.188;2023-07-20T12:19:06;27.20;94.10
9209;DHT22;4639;48.862;9.188;2023-07-20T12:21:33;27.20;93.90
9209;DHT22;4639;48.862;9.188;2023-07-20T12:23:59;27.50;95.10
9209;DHT22;4639;48.862;9.188;2023-07-20T12:26:29;27.80;94.00
9209;DHT22;4639;48.862;9.188;2023-07-20T12:28:55;27.90;93.00
9209;DHT22;4639;48.862;9.188;2023-07-20T12:31:21;28.00;93.10
9209;DHT22;4639;48.862;9.188;2023-07-20T12:33:48;28.20;94.40
9209;DHT22;4639;48.862;9.188;2023-07-20T12:36:14;28.20;93.40
9209;DHT22;4639;48.862;9.188;2023-07-20T12:38:40;28.10;92.60
9209;DHT22;4639;48.862;9.188;2023-07-20T12:41:09;27.80;92.50
9209;DHT22;4639;48.862;9.188;2023-07-20T12:43:35;27.70;94.60
9209;DHT22;4639;48.862;9.188;2023-07-20T12:46:01;27.80;93.20
9209;DHT22;4639;48.862;9.188;2023-07-20T12:48:26;28.20;94.00
9209;DHT22;4639;48.862;9.188;2023-07-20T12:50:52;28.40;92.80
9209;DHT22;4639;48.862;9.188;2023-07-20T12:53:17;28.40;92.30
9209;DHT22;4639;48.862;9.188;2023-07-20T12:55:43;28.10;91.20
9209;DHT22;4639;48.862;9.188;2023-07-20T12:58:11;27.90;91.60
9209;DHT22;4639;48.862;9.188;2023-07-20T13:00:37;27.80;93.00
9209;DHT22;4639;48.862;9.188;2023-07-20T13:03:03;27.40;92.00
9209;DHT22;4639;48.862;9.188;2023-07-20T13:05:31;27.50;93.20
9209;DHT22;4639;48.862;9.188;2023-07-20T13:07:57;27.60;93.20
9209;DHT22;4639;48.862;9.188;2023-07-20T13:10:23;27.70;94.40
9209;DHT22;4639;48.862;9.188;2023-07-20T13:12:49;27.90;92.40
9209;DHT22;4639;48.862;9.188;2023-07-20T13:15:15;27.90;91.70
9209;DHT22;4639;48.862;9.188;2023-07-20T13:17:41;27.80;91.70
9209;DHT22;4639;48.862;9.188;2023-07-20T13:20:08;27.60;92.30
9209;DHT22;4639;48.862;9.188;2023-07-20T13:22:35;27.30;92.40
9209;DHT22;4639;48.862;9.188;2023-07-20T13:25:01;27.30;92.80
9209;DHT22;4639;48.862;9.188;2023-07-20T13:27:27;27.70;92.50
9209;DHT22;4639;48.862;9.188;2023-07-20T13:29:52;27.90;91.60
9209;DHT22;4639;48.862;9.188;2023-07-20T13:32:19;28.00;92.60
9209;DHT22;4639;48.862;9.188;2023-07-20T13:34:45;28.30;91.60
9209;DHT22;4639;48.862;9.188;2023-07-20T13:37:11;28.50;92.00
9209;DHT22;4639;48.862;9.188;2023-07-20T13:39:37;28.30;91.50
9209;DHT22;4639;48.862;9.188;2023-07-20T13:42:03;28.00;91.00
9209;DHT22;4639;48.862;9.188;2023-07-20T13:44:31;27.70;93.50
9209;DHT22;4639;48.862;9.188;2023-07-20T13:46:57;27.80;92.30
9209;DHT22;4639;48.862;9.188;2023-07-20T13:49:22;28.00;91.70
9209;DHT22;4639;48.862;9.188;2023-07-20T13:51:48;28.00;91.30
9209;DHT22;4639;48.862;9.188;2023-07-20T13:54:13;28.20;92.40
9209;DHT22;4639;48.862;9.188;2023-07-20T13:56:39;28.20;91.90
9209;DHT22;4639;48.862;9.188;2023-07-20T13:59:04;28.00;91.60
9209;DHT22;4639;48.862;9.188;2023-07-20T14:01:30;27.90;90.90
9209;DHT22;4639;48.862;9.188;2023-07-20T14:03:58;28.00;91.10
9209;DHT22;4639;48.862;9.188;2023-07-20T14:06:24;28.00;91.10
9209;DHT22;4639;48.862;9.188;2023-07-20T14:08:49;28.20;91.60
9209;DHT22;4639;48.862;9.188;2023-07-20T14:11:16;28.30;90.50
9209;DHT22;4639;48.862;9.188;2023-07-20T14:13:42;28.40;90.90
9209;DHT22;4639;48.862;9.188;2023-07-20T14:16:07;28.60;90.30
9209;DHT22;4639;48.862;9.188;2023-07-20T14:18:33;28.40;89.00
9209;DHT22;4639;48.862;9.188;2023-07-20T14:20:59;28.30;90.40
9209;DHT22;4639;48.862;9.188;2023-07-20T14:23:25;28.20;90.80
9209;DHT22;4639;48.862;9.188;2023-07-20T14:25:51;28.30;90.20
9209;DHT22;4639;48.862;9.188;2023-07-20T14:28:16;28.50;90.60
9209;DHT22;4639;48.862;9.188;2023-07-20T14:30:42;28.80;90.00
9209;DHT22;4639;48.862;9.188;2023-07-20T14:33:07;29.00;88.90
9209;DHT22;4639;48.862;9.188;2023-07-20T14:35:33;29.10;89.40
9209;DHT22;4639;48.862;9.188;2023-07-20T14:38:00;29.40;88.20
9209;DHT22;4639;48.862;9.188;2023-07-20T14:40:26;29.40;87.30
9209;DHT22;4639;48.862;9.188;2023-07-20T14:42:52;29.50;89.10
9209;DHT22;4639;48.862;9.188;2023-07-20T14:45:17;29.50;85.70
9209;DHT22;4639;48.862;9.188;2023-07-20T14:47:43;29.40;88.30
9209;DHT22;4639;48.862;9.188;2023-07-20T14:50:09;29.40;88.30
9209;DHT22;4639;48.862;9.188;2023-07-20T14:52:35;29.40;88.10
9209;DHT22;4639;48.862;9.188;2023-07-20T14:55:00;29.20;87.90
9209;DHT22;4639;48.862;9.188;2023-07-20T14:57:26;29.00;88.60
9209;DHT22;4639;48.862;9.188;2023-07-20T14:59:52;29.30;90.40
9209;DHT22;4639;48.862;9.188;2023-07-20T15:02:19;29.50;86.50
9209;DHT22;4639;48.862;9.188;2023-07-20T15:04:51;29.60;88.00
9209;DHT22;4639;48.862;9.188;2023-07-20T15:07:20;29.40;88.90
9209;DHT22;4639;48.862;9.188;2023-07-20T15:09:47;29.30;88.50
9209;DHT22;4639;48.862;9.188;2023-07-20T15:12:13;29.50;87.70
9209;DHT22;4639;48.862;9.188;2023-07-20T15:14:40;29.40;89.30
9209;DHT22;4639;48.862;9.188;2023-07-20T15:17:07;29.30;87.30
9209;DHT22;4639;48.862;9.188;2023-07-20T15:19:32;29.40;88.90
9209;DHT22;4639;48.862;9.188;2023-07-20T15:21:59;29.30;85.10
9209;DHT22;4639;48.862;9.188;2023-07-20T15:24:25;29.20;86.20
9209;DHT22;4639;48.862;9.188;2023-07-20T15:26:51;29.30;86.50
9209;DHT22;4639;48.862;9.188;2023-07-20T15:29:16;29.20;86.70
9209;DHT22;4639;48.862;9.188;2023-07-20T15:31:42;29.20;87.60
9209;DHT22;4639;48.862;9.188;2023-07-20T15:34:07;29.30;87.80
9209;DHT22;4639;48.862;9.188;2023-07-20T15:36:33;29.40;86.10
9209;DHT22;4639;48.862;9.188;2023-07-20T15:38:59;29.10;85.00
9209;DHT22;4639;48.862;9.188;2023-07-20T15:41:24;28.90;86.60
9209;DHT22;4639;48.862;9.188;2023-07-20T15:43:50;28.50;85.20
9209;DHT22;4639;48.862;9.188;2023-07-20T15:48:46;28.20;88.10
9209;DHT22;4639;48.862;9.188;2023-07-20T15:51:12;28.20;87.90
9209;DHT22;4639;48.862;9.188;2023-07-20T15:53:39;28.20;87.90
9209;DHT22;4639;48.862;9.188;2023-07-20T15:56:04;28.20;88.50
9209;DHT22;4639;48.862;9.188;2023-07-20T15:58:31;28.10;87.00
9209;DHT22;4639;48.862;9.188;2023-07-20T16:00:57;28.00;89.00
9209;DHT22;4639;48.862;9.188;2023-07-20T16:03:23;27.90;88.60
9209;DHT22;4639;48.862;9.188;2023-07-20T16:05:54;27.80;88.70
9209;DHT22;4639;48.862;9.188;2023-07-20T16:08:20;27.70;89.10
9209;DHT22;4639;48.862;9.188;2023-07-20T16:10:45;27.80;89.00
9209;DHT22;4639;48.862;9.188;2023-07-20T16:13:11;27.80;87.50
9209;DHT22;4639;48.862;9.188;2023-07-20T16:15:36;27.70;88.70
9209;DHT22;4639;48.862;9.188;2023-07-20T16:18:02;27.70;88.90